sensor_id;sensor_type;location;lat;lon;timestamp;P1;durP1;ratioP1;P2;durP2;ratioP2
46491;SDS011;32206;51.446;6.792;2022-12-10T00:01:20;57.15;;;26.80;;
46491;SDS011;32206;51.446;6.792;2022-12-10T00:03:47;46.60;;;25.88;;
46491;SDS011;32206;51.446;6.792;2022-12-10T00:06:13;49.20;;;26.23;;
46491;SDS011;32206;51.446;6.792;2022-12-10T00:08:41;49.15;;;25.95;;
46491;SDS011;32206;51.446;6.792;2022-12-10T00:11:07;47.45;;;24.92;;
46491;SDS011;32206;51.446;6.792;2022-12-10T00:13:34;47.08;;;24.77;;
46491;SDS011;32206;51.446;6.792;2022-12-10T00:16:02;48.15;;;25.10;;
46491;SDS011;32206;51.446;6.792;2022-12-10T00:18:28;49.42;;;26.02;;
46491;SDS011;32206;51.446;6.792;2022-12-10T00:20:54;47.30;;;25.20;;
46491;SDS011;32206;51.446;6.792;2022-12-10T00:23:20;46.65;;;24.35;;
46491;SDS011;32206;51.446;6.792;2022-12-10T00:25:45;48.53;;;26.13;;
46491;SDS011;32206;51.446;6.792;2022-12-10T00:28:11;48.28;;;25.27;;
46491;SDS011;32206;51.446;6.792;2022-12-10T00:30:37;53.70;;;26.80;;
46491;SDS011;32206;51.446;6.792;2022-12-10T00:33:03;51.85;;;27.73;;
46491;SDS011;32206;51.446;6.792;2022-12-10T00:35:28;51.15;;;25.35;;
46491;SDS011;32206;51.446;6.792;2022-12-10T00:37:54;47.25;;;24.98;;
46491;SDS011;32206;51.446;6.792;2022-12-10T00:40:20;47.08;;;25.40;;
46491;SDS011;32206;51.446;6.792;2022-12-10T00:42:46;51.03;;;26.27;;
46491;SDS011;32206;51.446;6.792;2022-12-10T00:45:11;46.80;;;25.38;;
46491;SDS011;32206;51.446;6.792;2022-12-10T00:47:37;47.90;;;25.33;;
46491;SDS011;32206;51.446;6.792;2022-12-10T00:50:03;49.22;;;26.30;;
46491;SDS011;32206;51.446;6.792;2022-12-10T00:52:28;54.13;;;26.83;;
46491;SDS011;32206;51.446;6.792;2022-12-10T00:54:54;49.30;;;25.05;;
46491;SDS011;32206;51.446;6.792;2022-12-10T00:57:20;56.38;;;27.27;;
46491;SDS011;32206;51.446;6.792;2022-12-10T00:59:45;49.45;;;25.83;;
46491;SDS011;32206;51.446;6.792;2022-12-10T01:02:11;50.05;;;25.70;;
46491;SDS011;32206;51.446;6.792;2022-12-10T01:04:36;49.63;;;25.67;;
46491;SDS011;32206;51.446;6.792;2022-12-10T01:07:02;50.00;;;25.25;;
46491;SDS011;32206;51.446;6.792;2022-12-10T01:09:28;49.60;;;26.30;;
46491;SDS011;32206;51.446;6.792;2022-12-10T01:11:56;46.80;;;24.52;;
46491;SDS011;32206;51.446;6.792;2022-12-10T01:14:27;48.75;;;25.77;;
46491;SDS011;32206;51.446;6.792;2022-12-10T01:17:01;45.92;;;24.63;;
46491;SDS011;32206;51.446;6.792;2022-12-10T01:19:28;46.60;;;23.83;;
46491;SDS011;32206;51.446;6.792;2022-12-10T01:21:55;45.38;;;24.35;;
46491;SDS011;32206;51.446;6.792;2022-12-10T01:24:22;51.55;;;25.65;;
46491;SDS011;32206;51.446;6.792;2022-12-10T01:26:49;50.35;;;26.77;;
46491;SDS011;32206;51.446;6.792;2022-12-10T01:29:14;50.20;;;26.65;;
46491;SDS011;32206;51.446;6.792;2022-12-10T01:31:40;55.45;;;25.48;;
46491;SDS011;32206;51.446;6.792;2022-12-10T01:34:09;47.75;;;24.65;;
46491;SDS011;32206;51.446;6.792;2022-12-10T01:36:39;45.60;;;24.02;;
46491;SDS011;32206;51.446;6.792;2022-12-10T01:39:08;48.10;;;24.33;;
46491;SDS011;32206;51.446;6.792;2022-12-10T01:41:36;46.28;;;23.13;;
46491;SDS011;32206;51.446;6.792;2022-12-10T01:46:36;49.30;;;25.40;;
46491;SDS011;32206;51.446;6.792;2022-12-10T01:49:04;45.42;;;25.50;;
46491;SDS011;32206;51.446;6.792;2022-12-10T01:51:33;51.70;;;25.00;;
46491;SDS011;32206;51.446;6.792;2022-12-10T01:54:00;49.20;;;26.63;;
46491;SDS011;32206;51.446;6.792;2022-12-10T01:56:27;50.28;;;25.08;;
46491;SDS011;32206;51.446;6.792;2022-12-10T01:58:53;48.55;;;24.55;;
46491;SDS011;32206;51.446;6.792;2022-12-10T02:04:01;46.45;;;25.17;;
46491;SDS011;32206;51.446;6.792;2022-12-10T02:12:44;48.15;;;24.40;;
46491;SDS011;32206;51.446;6.792;2022-12-10T02:15:20;56.22;;;28.50;;
46491;SDS011;32206;51.446;6.792;2022-12-10T02:17:52;54.10;;;27.08;;
46491;SDS011;32206;51.446;6.792;2022-12-10T02:20:32;53.28;;;26.92;;
46491;SDS011;32206;51.446;6.792;2022-12-10T02:23:02;50.92;;;23.90;;
46491;SDS011;32206;51.446;6.792;2022-12-10T02:25:43;49.35;;;26.70;;
46491;SDS011;32206;51.446;6.792;2022-12-10T02:30:56;46.08;;;23.63;;
46491;SDS011;32206;51.446;6.792;2022-12-10T02:33:24;43.90;;;22.75;;
46491;SDS011;32206;51.446;6.792;2022-12-10T02:35:51;48.33;;;24.77;;
46491;SDS011;32206;51.446;6.792;2022-12-10T02:38:37;47.20;;;25.13;;
46491;SDS011;32206;51.446;6.792;2022-12-10T02:41:07;47.80;;;24.58;;
46491;SDS011;32206;51.446;6.792;2022-12-10T02:43:38;55.20;;;25.23;;
46491;SDS011;32206;51.446;6.792;2022-12-10T02:46:04;52.47;;;26.05;;
46491;SDS011;32206;51.446;6.792;2022-12-10T02:48:32;59.22;;;27.55;;
46491;SDS011;32206;51.446;6.792;2022-12-10T02:50:59;47.90;;;24.75;;
46491;SDS011;32206;51.446;6.792;2022-12-10T02:53:25;49.67;;;26.10;;
46491;SDS011;32206;51.446;6.792;2022-12-10T03:04:33;61.10;;;28.23;;
46491;SDS011;32206;51.446;6.792;2022-12-10T03:07:43;62.25;;;28.73;;
46491;SDS011;32206;51.446;6.792;2022-12-10T03:10:58;58.50;;;27.17;;
46491;SDS011;32206;51.446;6.792;2022-12-10T03:13:21;61.78;;;27.08;;
46491;SDS011;32206;51.446;6.792;2022-12-10T03:15:53;57.33;;;28.05;;
46491;SDS011;32206;51.446;6.792;2022-12-10T03:18:20;58.35;;;28.85;;
46491;SDS011;32206;51.446;6.792;2022-12-10T03:20:49;57.97;;;27.63;;
46491;SDS011;32206;51.446;6.792;2022-12-10T03:23:17;62.42;;;28.33;;
46491;SDS011;32206;51.446;6.792;2022-12-10T03:25:45;55.17;;;25.50;;
46491;SDS011;32206;51.446;6.792;2022-12-10T03:28:13;58.15;;;27.55;;
46491;SDS011;32206;51.446;6.792;2022-12-10T03:30:40;62.47;;;26.88;;
46491;SDS011;32206;51.446;6.792;2022-12-10T03:33:07;51.08;;;27.85;;
46491;SDS011;32206;51.446;6.792;2022-12-10T03:35:34;61.47;;;27.67;;
46491;SDS011;32206;51.446;6.792;2022-12-10T03:38:00;55.47;;;26.70;;
46491;SDS011;32206;51.446;6.792;2022-12-10T03:40:26;58.78;;;28.45;;
46491;SDS011;32206;51.446;6.792;2022-12-10T03:42:52;53.72;;;27.15;;
46491;SDS011;32206;51.446;6.792;2022-12-10T03:45:18;54.20;;;27.17;;
46491;SDS011;32206;51.446;6.792;2022-12-10T03:47:43;61.55;;;27.85;;
46491;SDS011;32206;51.446;6.792;2022-12-10T03:50:09;57.08;;;27.52;;
46491;SDS011;32206;51.446;6.792;2022-12-10T03:52:35;57.75;;;27.85;;
46491;SDS011;32206;51.446;6.792;2022-12-10T03:55:01;50.53;;;25.70;;
46491;SDS011;32206;51.446;6.792;2022-12-10T03:57:28;53.53;;;26.20;;
46491;SDS011;32206;51.446;6.792;2022-12-10T03:59:54;61.50;;;29.70;;
46491;SDS011;32206;51.446;6.792;2022-12-10T04:02:19;52.97;;;25.95;;
46491;SDS011;32206;51.446;6.792;2022-12-10T04:04:45;58.40;;;27.60;;
46491;SDS011;32206;51.446;6.792;2022-12-10T04:07:10;57.80;;;27.90;;
46491;SDS011;32206;51.446;6.792;2022-12-10T04:09:36;54.47;;;25.92;;
46491;SDS011;32206;51.446;6.792;2022-12-10T04:12:02;56.60;;;28.15;;
46491;SDS011;32206;51.446;6.792;2022-12-10T04:14:27;50.92;;;27.58;;
46491;SDS011;32206;51.446;6.792;2022-12-10T04:17:11;49.38;;;27.05;;
46491;SDS011;32206;51.446;6.792;2022-12-10T04:19:37;56.58;;;28.02;;
46491;SDS011;32206;51.446;6.792;2022-12-10T04:22:03;58.78;;;27.08;;
46491;SDS011;32206;51.446;6.792;2022-12-10T04:24:48;56.42;;;27.95;;
46491;SDS011;32206;51.446;6.792;2022-12-10T04:27:33;56.92;;;28.20;;
46491;SDS011;32206;51.446;6.792;2022-12-10T04:30:01;62.63;;;28.92;;
46491;SDS011;32206;51.446;6.792;2022-12-10T04:32:28;51.70;;;26.98;;
46491;SDS011;32206;51.446;6.792;2022-12-10T04:34:54;65.43;;;31.30;;
46491;SDS011;32206;51.446;6.792;2022-12-10T04:37:20;63.00;;;31.60;;
46491;SDS011;32206;51.446;6.792;2022-12-10T04:39:46;69.28;;;32.45;;
46491;SDS011;32206;51.446;6.792;2022-12-10T04:42:14;59.50;;;29.92;;
46491;SDS011;32206;51.446;6.792;2022-12-10T04:44:39;68.35;;;31.65;;
46491;SDS011;32206;51.446;6.792;2022-12-10T04:47:06;56.42;;;27.45;;
46491;SDS011;32206;51.446;6.792;2022-12-10T04:49:33;67.57;;;31.23;;
46491;SDS011;32206;51.446;6.792;2022-12-10T04:51:58;67.78;;;31.00;;
46491;SDS011;32206;51.446;6.792;2022-12-10T04:54:25;66.85;;;30.10;;
46491;SDS011;32206;51.446;6.792;2022-12-10T04:56:51;76.25;;;32.53;;
46491;SDS011;32206;51.446;6.792;2022-12-10T04:59:16;71.35;;;31.67;;
46491;SDS011;32206;51.446;6.792;2022-12-10T05:01:42;65.30;;;30.73;;
46491;SDS011;32206;51.446;6.792;2022-12-10T05:04:09;76.80;;;33.17;;
46491;SDS011;32206;51.446;6.792;2022-12-10T05:06:38;63.70;;;30.35;;
46491;SDS011;32206;51.446;6.792;2022-12-10T05:09:05;65.25;;;29.25;;
46491;SDS011;32206;51.446;6.792;2022-12-10T05:11:31;69.80;;;30.85;;
46491;SDS011;32206;51.446;6.792;2022-12-10T05:13:58;81.32;;;31.33;;
46491;SDS011;32206;51.446;6.792;2022-12-10T05:16:26;74.60;;;31.27;;
46491;SDS011;32206;51.446;6.792;2022-12-10T05:18:53;65.95;;;30.60;;
46491;SDS011;32206;51.446;6.792;2022-12-10T05:21:20;67.15;;;31.67;;
46491;SDS011;32206;51.446;6.792;2022-12-10T05:23:49;75.63;;;32.83;;
46491;SDS011;32206;51.446;6.792;2022-12-10T05:26:17;81.40;;;34.90;;
46491;SDS011;32206;51.446;6.792;2022-12-10T05:28:54;86.05;;;37.13;;
46491;SDS011;32206;51.446;6.792;2022-12-10T05:33:48;61.70;;;29.67;;
46491;SDS011;32206;51.446;6.792;2022-12-10T05:36:15;70.30;;;30.88;;
46491;SDS011;32206;51.446;6.792;2022-12-10T05:38:42;65.75;;;30.10;;
46491;SDS011;32206;51.446;6.792;2022-12-10T05:41:09;75.65;;;32.00;;
46491;SDS011;32206;51.446;6.792;2022-12-10T05:43:38;81.15;;;35.67;;
46491;SDS011;32206;51.446;6.792;2022-12-10T05:46:05;74.68;;;33.33;;
46491;SDS011;32206;51.446;6.792;2022-12-10T05:48:34;69.45;;;30.50;;
46491;SDS011;32206;51.446;6.792;2022-12-10T05:51:07;84.53;;;35.03;;
46491;SDS011;32206;51.446;6.792;2022-12-10T05:53:34;73.07;;;32.85;;
46491;SDS011;32206;51.446;6.792;2022-12-10T05:56:01;78.18;;;32.05;;
46491;SDS011;32206;51.446;6.792;2022-12-10T05:58:28;86.88;;;34.33;;
46491;SDS011;32206;51.446;6.792;2022-12-10T06:00:55;82.15;;;34.95;;
46491;SDS011;32206;51.446;6.792;2022-12-10T06:03:21;78.10;;;32.03;;
46491;SDS011;32206;51.446;6.792;2022-12-10T06:05:47;88.78;;;36.15;;
46491;SDS011;32206;51.446;6.792;2022-12-10T06:08:12;95.30;;;34.85;;
46491;SDS011;32206;51.446;6.792;2022-12-10T06:10:38;91.78;;;35.67;;
46491;SDS011;32206;51.446;6.792;2022-12-10T06:13:03;91.03;;;36.47;;
46491;SDS011;32206;51.446;6.792;2022-12-10T06:15:30;91.35;;;36.03;;
46491;SDS011;32206;51.446;6.792;2022-12-10T06:17:56;88.47;;;33.88;;
46491;SDS011;32206;51.446;6.792;2022-12-10T06:20:23;81.47;;;34.08;;
46491;SDS011;32206;51.446;6.792;2022-12-10T06:22:49;74.00;;;31.50;;
46491;SDS011;32206;51.446;6.792;2022-12-10T06:25:14;74.60;;;32.05;;
46491;SDS011;32206;51.446;6.792;2022-12-10T06:27:40;73.63;;;29.48;;
46491;SDS011;32206;51.446;6.792;2022-12-10T06:30:06;61.42;;;29.42;;
46491;SDS011;32206;51.446;6.792;2022-12-10T06:32:32;59.85;;;28.42;;
46491;SDS011;32206;51.446;6.792;2022-12-10T06:34:58;57.17;;;27.55;;
46491;SDS011;32206;51.446;6.792;2022-12-10T06:37:23;64.18;;;28.27;;
46491;SDS011;32206;51.446;6.792;2022-12-10T06:39:52;57.72;;;27.35;;
46491;SDS011;32206;51.446;6.792;2022-12-10T06:42:21;54.22;;;26.90;;
46491;SDS011;32206;51.446;6.792;2022-12-10T06:44:46;56.50;;;27.00;;
46491;SDS011;32206;51.446;6.792;2022-12-10T06:47:12;59.28;;;27.33;;
46491;SDS011;32206;51.446;6.792;2022-12-10T06:49:39;56.83;;;25.35;;
46491;SDS011;32206;51.446;6.792;2022-12-10T06:52:05;53.90;;;26.35;;
46491;SDS011;32206;51.446;6.792;2022-12-10T06:54:31;62.65;;;28.48;;
46491;SDS011;32206;51.446;6.792;2022-12-10T06:56:57;61.25;;;29.30;;
46491;SDS011;32206;51.446;6.792;2022-12-10T06:59:23;62.75;;;30.45;;
46491;SDS011;32206;51.446;6.792;2022-12-10T07:01:49;61.65;;;28.73;;
46491;SDS011;32206;51.446;6.792;2022-12-10T07:04:15;65.85;;;31.02;;
46491;SDS011;32206;51.446;6.792;2022-12-10T07:06:41;61.30;;;28.92;;
46491;SDS011;32206;51.446;6.792;2022-12-10T07:09:06;63.22;;;29.02;;
46491;SDS011;32206;51.446;6.792;2022-12-10T07:11:32;68.40;;;31.13;;
46491;SDS011;32206;51.446;6.792;2022-12-10T07:13:58;69.82;;;30.83;;
46491;SDS011;32206;51.446;6.792;2022-12-10T07:16:25;67.40;;;30.80;;
46491;SDS011;32206;51.446;6.792;2022-12-10T07:18:57;70.00;;;31.38;;
46491;SDS011;32206;51.446;6.792;2022-12-10T07:21:28;69.97;;;32.15;;
46491;SDS011;32206;51.446;6.792;2022-12-10T07:23:57;71.75;;;32.42;;
46491;SDS011;32206;51.446;6.792;2022-12-10T07:26:25;66.93;;;30.88;;
46491;SDS011;32206;51.446;6.792;2022-12-10T07:28:55;68.97;;;31.05;;
46491;SDS011;32206;51.446;6.792;2022-12-10T07:31:21;71.00;;;33.92;;
46491;SDS011;32206;51.446;6.792;2022-12-10T07:33:47;79.07;;;33.83;;
46491;SDS011;32206;51.446;6.792;2022-12-10T07:36:15;64.25;;;32.58;;
46491;SDS011;32206;51.446;6.792;2022-12-10T07:38:41;66.30;;;30.92;;
46491;SDS011;32206;51.446;6.792;2022-12-10T07:41:07;69.18;;;30.38;;
46491;SDS011;32206;51.446;6.792;2022-12-10T07:43:38;82.00;;;34.08;;
46491;SDS011;32206;51.446;6.792;2022-12-10T07:46:07;74.97;;;35.72;;
46491;SDS011;32206;51.446;6.792;2022-12-10T07:48:35;86.82;;;35.60;;
46491;SDS011;32206;51.446;6.792;2022-12-10T07:51:02;86.47;;;37.35;;
46491;SDS011;32206;51.446;6.792;2022-12-10T07:53:28;79.88;;;34.28;;
46491;SDS011;32206;51.446;6.792;2022-12-10T07:55:54;91.07;;;36.67;;
46491;SDS011;32206;51.446;6.792;2022-12-10T07:58:19;88.53;;;35.80;;
46491;SDS011;32206;51.446;6.792;2022-12-10T08:00:45;70.65;;;32.88;;
46491;SDS011;32206;51.446;6.792;2022-12-10T08:03:11;76.45;;;33.28;;
46491;SDS011;32206;51.446;6.792;2022-12-10T08:05:36;87.22;;;35.95;;
46491;SDS011;32206;51.446;6.792;2022-12-10T08:08:03;84.38;;;36.05;;
46491;SDS011;32206;51.446;6.792;2022-12-10T08:10:29;86.50;;;38.65;;
46491;SDS011;32206;51.446;6.792;2022-12-10T08:12:55;82.80;;;36.75;;
46491;SDS011;32206;51.446;6.792;2022-12-10T08:15:20;88.90;;;36.95;;
46491;SDS011;32206;51.446;6.792;2022-12-10T08:17:46;86.35;;;38.58;;
46491;SDS011;32206;51.446;6.792;2022-12-10T08:20:11;90.28;;;38.20;;
46491;SDS011;32206;51.446;6.792;2022-12-10T08:22:37;86.70;;;36.15;;
46491;SDS011;32206;51.446;6.792;2022-12-10T08:25:04;85.15;;;35.22;;
46491;SDS011;32206;51.446;6.792;2022-12-10T08:27:30;75.18;;;33.55;;
46491;SDS011;32206;51.446;6.792;2022-12-10T08:29:55;74.80;;;32.75;;
46491;SDS011;32206;51.446;6.792;2022-12-10T08:32:21;78.50;;;33.47;;
46491;SDS011;32206;51.446;6.792;2022-12-10T08:34:47;75.43;;;33.92;;
46491;SDS011;32206;51.446;6.792;2022-12-10T08:37:13;78.20;;;35.35;;
46491;SDS011;32206;51.446;6.792;2022-12-10T08:39:39;81.82;;;35.30;;
46491;SDS011;32206;51.446;6.792;2022-12-10T08:42:05;79.90;;;35.28;;
46491;SDS011;32206;51.446;6.792;2022-12-10T08:44:31;74.20;;;33.80;;
46491;SDS011;32206;51.446;6.792;2022-12-10T08:46:56;82.10;;;34.28;;
46491;SDS011;32206;51.446;6.792;2022-12-10T08:49:22;79.85;;;34.13;;
46491;SDS011;32206;51.446;6.792;2022-12-10T08:51:48;81.55;;;34.92;;
46491;SDS011;32206;51.446;6.792;2022-12-10T08:54:14;86.45;;;36.00;;
46491;SDS011;32206;51.446;6.792;2022-12-10T08:56:39;83.55;;;35.97;;
46491;SDS011;32206;51.446;6.792;2022-12-10T08:59:05;85.85;;;37.47;;
46491;SDS011;32206;51.446;6.792;2022-12-10T09:01:31;85.75;;;34.13;;
46491;SDS011;32206;51.446;6.792;2022-12-10T09:03:57;83.43;;;36.78;;
46491;SDS011;32206;51.446;6.792;2022-12-10T09:06:25;86.00;;;36.28;;
46491;SDS011;32206;51.446;6.792;2022-12-10T09:08:51;79.03;;;36.25;;
46491;SDS011;32206;51.446;6.792;2022-12-10T09:11:27;83.80;;;35.33;;
46491;SDS011;32206;51.446;6.792;2022-12-10T09:13:54;81.03;;;35.25;;
46491;SDS011;32206;51.446;6.792;2022-12-10T09:16:21;82.03;;;34.53;;
46491;SDS011;32206;51.446;6.792;2022-12-10T09:18:51;80.63;;;33.78;;
46491;SDS011;32206;51.446;6.792;2022-12-10T09:21:17;84.53;;;36.35;;
46491;SDS011;32206;51.446;6.792;2022-12-10T09:23:43;80.68;;;36.38;;
46491;SDS011;32206;51.446;6.792;2022-12-10T09:26:10;68.35;;;33.70;;
46491;SDS011;32206;51.446;6.792;2022-12-10T09:28:37;80.57;;;34.88;;
46491;SDS011;32206;51.446;6.792;2022-12-10T09:31:03;80.93;;;34.45;;
46491;SDS011;32206;51.446;6.792;2022-12-10T09:33:30;80.30;;;34.88;;
46491;SDS011;32206;51.446;6.792;2022-12-10T09:35:56;79.85;;;32.47;;
46491;SDS011;32206;51.446;6.792;2022-12-10T09:38:23;84.63;;;32.42;;
46491;SDS011;32206;51.446;6.792;2022-12-10T09:40:51;80.72;;;34.75;;
46491;SDS011;32206;51.446;6.792;2022-12-10T09:43:23;77.25;;;33.38;;
46491;SDS011;32206;51.446;6.792;2022-12-10T09:51:33;78.88;;;33.40;;
46491;SDS011;32206;51.446;6.792;2022-12-10T09:54:02;84.75;;;35.75;;
46491;SDS011;32206;51.446;6.792;2022-12-10T09:56:40;88.82;;;36.85;;
46491;SDS011;32206;51.446;6.792;2022-12-10T09:59:15;83.85;;;36.03;;
46491;SDS011;32206;51.446;6.792;2022-12-10T10:04:54;89.15;;;35.30;;
46491;SDS011;32206;51.446;6.792;2022-12-10T10:07:30;94.68;;;36.08;;
46491;SDS011;32206;51.446;6.792;2022-12-10T10:09:59;88.00;;;35.50;;
46491;SDS011;32206;51.446;6.792;2022-12-10T10:12:28;83.93;;;34.97;;
46491;SDS011;32206;51.446;6.792;2022-12-10T10:14:55;79.55;;;33.15;;
46491;SDS011;32206;51.446;6.792;2022-12-10T10:17:28;86.47;;;34.85;;
46491;SDS011;32206;51.446;6.792;2022-12-10T10:20:00;81.18;;;35.70;;
46491;SDS011;32206;51.446;6.792;2022-12-10T10:22:26;77.63;;;34.20;;
46491;SDS011;32206;51.446;6.792;2022-12-10T10:24:52;76.82;;;33.50;;
46491;SDS011;32206;51.446;6.792;2022-12-10T10:27:22;80.45;;;33.45;;
46491;SDS011;32206;51.446;6.792;2022-12-10T10:29:52;78.55;;;31.98;;
46491;SDS011;32206;51.446;6.792;2022-12-10T10:35:03;79.25;;;34.60;;
46491;SDS011;32206;51.446;6.792;2022-12-10T10:37:40;80.78;;;35.50;;
46491;SDS011;32206;51.446;6.792;2022-12-10T10:40:23;61.28;;;29.52;;
46491;SDS011;32206;51.446;6.792;2022-12-10T10:42:53;58.63;;;27.85;;
46491;SDS011;32206;51.446;6.792;2022-12-10T10:48:15;61.10;;;29.27;;
46491;SDS011;32206;51.446;6.792;2022-12-10T10:50:46;65.55;;;30.10;;
46491;SDS011;32206;51.446;6.792;2022-12-10T10:53:25;63.28;;;27.40;;
46491;SDS011;32206;51.446;6.792;2022-12-10T10:55:55;55.75;;;27.85;;
46491;SDS011;32206;51.446;6.792;2022-12-10T10:58:30;61.03;;;30.27;;
46491;SDS011;32206;51.446;6.792;2022-12-10T11:01:05;58.75;;;25.95;;
46491;SDS011;32206;51.446;6.792;2022-12-10T11:06:00;58.75;;;27.98;;
46491;SDS011;32206;51.446;6.792;2022-12-10T11:08:30;52.20;;;26.02;;
46491;SDS011;32206;51.446;6.792;2022-12-10T11:11:03;48.00;;;24.35;;
46491;SDS011;32206;51.446;6.792;2022-12-10T11:13:32;50.85;;;23.70;;
46491;SDS011;32206;51.446;6.792;2022-12-10T11:18:57;52.42;;;24.95;;
46491;SDS011;32206;51.446;6.792;2022-12-10T11:21:28;46.65;;;24.38;;
46491;SDS011;32206;51.446;6.792;2022-12-10T11:23:55;48.35;;;24.00;;
46491;SDS011;32206;51.446;6.792;2022-12-10T11:29:17;46.60;;;24.98;;
46491;SDS011;32206;51.446;6.792;2022-12-10T11:32:20;51.70;;;26.08;;
46491;SDS011;32206;51.446;6.792;2022-12-10T11:38:40;51.30;;;25.90;;
46491;SDS011;32206;51.446;6.792;2022-12-10T11:51:25;52.67;;;26.00;;
46491;SDS011;32206;51.446;6.792;2022-12-10T11:54:00;49.42;;;24.92;;
46491;SDS011;32206;51.446;6.792;2022-12-10T11:56:47;49.65;;;24.67;;
46491;SDS011;32206;51.446;6.792;2022-12-10T11:59:38;47.22;;;25.30;;
46491;SDS011;32206;51.446;6.792;2022-12-10T12:07:57;42.50;;;22.67;;
46491;SDS011;32206;51.446;6.792;2022-12-10T12:16:09;77.55;;;41.97;;
46491;SDS011;32206;51.446;6.792;2022-12-10T12:18:51;55.38;;;27.23;;
46491;SDS011;32206;51.446;6.792;2022-12-10T12:21:26;72.97;;;37.20;;
46491;SDS011;32206;51.446;6.792;2022-12-10T12:24:00;65.88;;;35.05;;
46491;SDS011;32206;51.446;6.792;2022-12-10T12:31:37;55.42;;;27.48;;
46491;SDS011;32206;51.446;6.792;2022-12-10T12:34:17;65.00;;;36.28;;
46491;SDS011;32206;51.446;6.792;2022-12-10T12:36:46;56.80;;;26.85;;
46491;SDS011;32206;51.446;6.792;2022-12-10T12:44:59;66.32;;;30.45;;
46491;SDS011;32206;51.446;6.792;2022-12-10T12:48:30;69.28;;;32.38;;
46491;SDS011;32206;51.446;6.792;2022-12-10T12:53:11;56.10;;;26.45;;
46491;SDS011;32206;51.446;6.792;2022-12-10T12:58:24;55.90;;;25.67;;
46491;SDS011;32206;51.446;6.792;2022-12-10T13:01:18;50.42;;;23.70;;
46491;SDS011;32206;51.446;6.792;2022-12-10T13:03:55;46.83;;;24.52;;
46491;SDS011;32206;51.446;6.792;2022-12-10T13:06:24;53.75;;;25.20;;
46491;SDS011;32206;51.446;6.792;2022-12-10T13:29:29;44.95;;;21.40;;
46491;SDS011;32206;51.446;6.792;2022-12-10T13:37:32;36.25;;;19.35;;
46491;SDS011;32206;51.446;6.792;2022-12-10T13:42:33;39.95;;;20.63;;
46491;SDS011;32206;51.446;6.792;2022-12-10T13:50:32;39.38;;;20.58;;
46491;SDS011;32206;51.446;6.792;2022-12-10T13:53:21;38.38;;;21.42;;
46491;SDS011;32206;51.446;6.792;2022-12-10T13:56:06;39.40;;;19.95;;
46491;SDS011;32206;51.446;6.792;2022-12-10T14:07:11;41.33;;;23.08;;
46491;SDS011;32206;51.446;6.792;2022-12-10T14:09:42;46.75;;;24.45;;
46491;SDS011;32206;51.446;6.792;2022-12-10T14:12:15;41.20;;;23.58;;
46491;SDS011;32206;51.446;6.792;2022-12-10T14:14:47;44.67;;;24.48;;
46491;SDS011;32206;51.446;6.792;2022-12-10T14:17:21;41.70;;;21.48;;
46491;SDS011;32206;51.446;6.792;2022-12-10T14:19:53;53.90;;;23.73;;
46491;SDS011;32206;51.446;6.792;2022-12-10T14:22:23;42.60;;;22.83;;
46491;SDS011;32206;51.446;6.792;2022-12-10T14:25:01;40.45;;;23.80;;
46491;SDS011;32206;51.446;6.792;2022-12-10T14:27:31;50.20;;;24.73;;
46491;SDS011;32206;51.446;6.792;2022-12-10T14:29:58;42.22;;;23.33;;
46491;SDS011;32206;51.446;6.792;2022-12-10T14:32:31;45.50;;;25.15;;
46491;SDS011;32206;51.446;6.792;2022-12-10T14:34:59;48.10;;;23.88;;
46491;SDS011;32206;51.446;6.792;2022-12-10T14:37:29;43.97;;;24.15;;
46491;SDS011;32206;51.446;6.792;2022-12-10T14:39:56;45.72;;;24.40;;
46491;SDS011;32206;51.446;6.792;2022-12-10T14:42:22;49.92;;;24.45;;
46491;SDS011;32206;51.446;6.792;2022-12-10T14:44:51;50.08;;;26.83;;
46491;SDS011;32206;51.446;6.792;2022-12-10T14:47:26;52.58;;;26.42;;
46491;SDS011;32206;51.446;6.792;2022-12-10T14:50:00;52.47;;;27.27;;
46491;SDS011;32206;51.446;6.792;2022-12-10T14:52:33;46.33;;;25.85;;
46491;SDS011;32206;51.446;6.792;2022-12-10T14:55:15;47.95;;;26.00;;
46491;SDS011;32206;51.446;6.792;2022-12-10T14:57:57;56.83;;;28.00;;
46491;SDS011;32206;51.446;6.792;2022-12-10T15:00:26;46.33;;;24.95;;
46491;SDS011;32206;51.446;6.792;2022-12-10T15:03:02;48.25;;;25.30;;
46491;SDS011;32206;51.446;6.792;2022-12-10T15:05:36;59.05;;;27.60;;
46491;SDS011;32206;51.446;6.792;2022-12-10T15:08:06;49.50;;;25.70;;
46491;SDS011;32206;51.446;6.792;2022-12-10T15:10:41;51.33;;;26.85;;
46491;SDS011;32206;51.446;6.792;2022-12-10T15:18:27;48.07;;;23.83;;
46491;SDS011;32206;51.446;6.792;2022-12-10T15:21:05;47.83;;;23.88;;
46491;SDS011;32206;51.446;6.792;2022-12-10T15:23:39;51.63;;;26.15;;
46491;SDS011;32206;51.446;6.792;2022-12-10T15:29:14;49.42;;;25.90;;
46491;SDS011;32206;51.446;6.792;2022-12-10T15:31:54;47.75;;;25.58;;
46491;SDS011;32206;51.446;6.792;2022-12-10T15:34:46;46.63;;;24.10;;
46491;SDS011;32206;51.446;6.792;2022-12-10T15:37:17;47.47;;;25.58;;
46491;SDS011;32206;51.446;6.792;2022-12-10T15:39:53;54.47;;;27.42;;
46491;SDS011;32206;51.446;6.792;2022-12-10T15:42:35;47.97;;;25.63;;
46491;SDS011;32206;51.446;6.792;2022-12-10T15:47:41;52.78;;;25.38;;
46491;SDS011;32206;51.446;6.792;2022-12-10T15:50:08;48.50;;;24.30;;
46491;SDS011;32206;51.446;6.792;2022-12-10T15:52:34;59.88;;;26.45;;
46491;SDS011;32206;51.446;6.792;2022-12-10T15:54:59;65.45;;;30.40;;
46491;SDS011;32206;51.446;6.792;2022-12-10T15:57:29;59.47;;;26.38;;
46491;SDS011;32206;51.446;6.792;2022-12-10T16:00:01;68.18;;;28.67;;
46491;SDS011;32206;51.446;6.792;2022-12-10T16:05:18;57.33;;;28.92;;
46491;SDS011;32206;51.446;6.792;2022-12-10T16:07:50;53.50;;;25.27;;
46491;SDS011;32206;51.446;6.792;2022-12-10T16:10:19;53.38;;;26.50;;
46491;SDS011;32206;51.446;6.792;2022-12-10T16:12:47;55.08;;;25.40;;
46491;SDS011;32206;51.446;6.792;2022-12-10T16:15:16;52.38;;;25.50;;
46491;SDS011;32206;51.446;6.792;2022-12-10T16:17:44;61.13;;;25.92;;
46491;SDS011;32206;51.446;6.792;2022-12-10T16:20:14;49.67;;;22.90;;
46491;SDS011;32206;51.446;6.792;2022-12-10T16:22:48;51.90;;;24.02;;
46491;SDS011;32206;51.446;6.792;2022-12-10T16:25:14;54.85;;;25.38;;
46491;SDS011;32206;51.446;6.792;2022-12-10T16:27:40;54.38;;;24.88;;
46491;SDS011;32206;51.446;6.792;2022-12-10T16:33:10;56.22;;;25.65;;
46491;SDS011;32206;51.446;6.792;2022-12-10T16:35:36;61.92;;;25.23;;
46491;SDS011;32206;51.446;6.792;2022-12-10T16:38:02;56.50;;;24.58;;
46491;SDS011;32206;51.446;6.792;2022-12-10T16:40:29;61.33;;;25.10;;
46491;SDS011;32206;51.446;6.792;2022-12-10T16:42:55;64.47;;;26.95;;
46491;SDS011;32206;51.446;6.792;2022-12-10T16:45:22;54.33;;;25.67;;
46491;SDS011;32206;51.446;6.792;2022-12-10T16:47:51;52.15;;;25.20;;
46491;SDS011;32206;51.446;6.792;2022-12-10T16:50:17;52.60;;;25.55;;
46491;SDS011;32206;51.446;6.792;2022-12-10T16:52:44;58.38;;;26.02;;
46491;SDS011;32206;51.446;6.792;2022-12-10T16:55:17;57.20;;;25.65;;
46491;SDS011;32206;51.446;6.792;2022-12-10T16:57:45;62.55;;;26.50;;
46491;SDS011;32206;51.446;6.792;2022-12-10T17:00:12;63.30;;;26.00;;
46491;SDS011;32206;51.446;6.792;2022-12-10T17:02:39;62.50;;;25.30;;